sensor_id;sensor_type;location;lat;lon;timestamp;P1;durP1;ratioP1;P2;durP2;ratioP2
65583;SDS011;62116;43.582;1.470;2023-04-24T00:02:09;6.30;;;2.88;;
65583;SDS011;62116;43.582;1.470;2023-04-24T00:04:36;7.03;;;3.60;;
65583;SDS011;62116;43.582;1.470;2023-04-24T00:07:05;9.52;;;4.00;;
65583;SDS011;62116;43.582;1.470;2023-04-24T00:09:31;9.10;;;4.65;;
65583;SDS011;62116;43.582;1.470;2023-04-24T00:11:57;9.85;;;4.10;;
65583;SDS011;62116;43.582;1.470;2023-04-24T00:14:22;9.75;;;3.83;;
65583;SDS011;62116;43.582;1.470;2023-04-24T00:16:48;7.10;;;3.30;;
65583;SDS011;62116;43.582;1.470;2023-04-24T00:19:14;6.95;;;3.33;;
65583;SDS011;62116;43.582;1.470;2023-04-24T00:21:39;7.55;;;3.35;;
65583;SDS011;62116;43.582;1.470;2023-04-24T00:24:06;6.25;;;2.75;;
65583;SDS011;62116;43.582;1.470;2023-04-24T00:26:31;5.65;;;2.55;;
65583;SDS011;62116;43.582;1.470;2023-04-24T00:28:57;7.07;;;2.70;;
65583;SDS011;62116;43.582;1.470;2023-04-24T00:31:22;6.72;;;2.40;;
65583;SDS011;62116;43.582;1.470;2023-04-24T00:33:47;6.90;;;2.47;;
65583;SDS011;62116;43.582;1.470;2023-04-24T00:36:13;7.25;;;2.65;;
65583;SDS011;62116;43.582;1.470;2023-04-24T00:38:38;6.82;;;2.67;;
65583;SDS011;62116;43.582;1.470;2023-04-24T00:41:04;7.63;;;3.38;;
65583;SDS011;62116;43.582;1.470;2023-04-24T00:43:29;6.38;;;3.38;;
65583;SDS011;62116;43.582;1.470;2023-04-24T00:45:55;6.65;;;3.08;;
65583;SDS011;62116;43.582;1.470;2023-04-24T00:48:20;6.43;;;3.67;;
65583;SDS011;62116;43.582;1.470;2023-04-24T00:50:46;7.00;;;3.30;;
65583;SDS011;62116;43.582;1.470;2023-04-24T00:53:11;5.80;;;2.60;;
65583;SDS011;62116;43.582;1.470;2023-04-24T00:55:37;5.97;;;2.25;;
65583;SDS011;62116;43.582;1.470;2023-04-24T00:58:02;4.43;;;2.10;;
65583;SDS011;62116;43.582;1.470;2023-04-24T01:00:28;6.60;;;2.47;;
65583;SDS011;62116;43.582;1.470;2023-04-24T01:02:53;5.45;;;2.25;;
65583;SDS011;62116;43.582;1.470;2023-04-24T01:05:23;9.77;;;2.88;;
65583;SDS011;62116;43.582;1.470;2023-04-24T01:07:48;3.60;;;2.10;;
65583;SDS011;62116;43.582;1.470;2023-04-24T01:10:14;8.30;;;2.35;;
65583;SDS011;62116;43.582;1.470;2023-04-24T01:12:40;4.43;;;1.90;;
65583;SDS011;62116;43.582;1.470;2023-04-24T01:15:06;4.55;;;1.67;;
65583;SDS011;62116;43.582;1.470;2023-04-24T01:17:32;8.85;;;1.75;;
65583;SDS011;62116;43.582;1.470;2023-04-24T01:19:58;4.45;;;1.50;;
65583;SDS011;62116;43.582;1.470;2023-04-24T01:22:25;5.75;;;1.48;;
65583;SDS011;62116;43.582;1.470;2023-04-24T01:24:54;3.75;;;1.60;;
65583;SDS011;62116;43.582;1.470;2023-04-24T01:27:19;6.25;;;1.75;;
65583;SDS011;62116;43.582;1.470;2023-04-24T01:29:45;5.28;;;1.70;;
65583;SDS011;62116;43.582;1.470;2023-04-24T01:32:12;1.95;;;1.30;;
65583;SDS011;62116;43.582;1.470;2023-04-24T01:34:38;6.15;;;1.52;;
65583;SDS011;62116;43.582;1.470;2023-04-24T01:37:04;5.03;;;1.60;;
65583;SDS011;62116;43.582;1.470;2023-04-24T01:39:30;8.68;;;1.70;;
65583;SDS011;62116;43.582;1.470;2023-04-24T01:41:56;5.40;;;1.48;;
65583;SDS011;62116;43.582;1.470;2023-04-24T01:44:21;4.90;;;1.70;;
65583;SDS011;62116;43.582;1.470;2023-04-24T01:46:50;8.63;;;1.60;;
65583;SDS011;62116;43.582;1.470;2023-04-24T01:49:16;4.35;;;1.40;;
65583;SDS011;62116;43.582;1.470;2023-04-24T01:51:41;5.70;;;1.38;;
65583;SDS011;62116;43.582;1.470;2023-04-24T01:54:06;5.60;;;1.75;;
65583;SDS011;62116;43.582;1.470;2023-04-24T01:56:35;5.25;;;1.60;;
65583;SDS011;62116;43.582;1.470;2023-04-24T01:59:05;4.10;;;1.30;;
65583;SDS011;62116;43.582;1.470;2023-04-24T02:01:38;4.93;;;1.50;;
65583;SDS011;62116;43.582;1.470;2023-04-24T02:04:04;6.88;;;1.35;;
65583;SDS011;62116;43.582;1.470;2023-04-24T02:06:31;7.28;;;1.70;;
65583;SDS011;62116;43.582;1.470;2023-04-24T02:08:59;7.55;;;1.70;;
65583;SDS011;62116;43.582;1.470;2023-04-24T02:11:25;6.10;;;1.50;;
65583;SDS011;62116;43.582;1.470;2023-04-24T02:13:51;6.70;;;1.50;;
65583;SDS011;62116;43.582;1.470;2023-04-24T02:16:17;6.68;;;1.70;;
65583;SDS011;62116;43.582;1.470;2023-04-24T02:18:43;5.00;;;1.45;;
65583;SDS011;62116;43.582;1.470;2023-04-24T02:21:08;3.20;;;1.23;;
65583;SDS011;62116;43.582;1.470;2023-04-24T02:23:35;7.15;;;1.73;;
65583;SDS011;62116;43.582;1.470;2023-04-24T02:26:00;9.07;;;1.60;;
65583;SDS011;62116;43.582;1.470;2023-04-24T02:28:25;5.00;;;1.50;;
65583;SDS011;62116;43.582;1.470;2023-04-24T02:30:51;6.07;;;1.63;;
65583;SDS011;62116;43.582;1.470;2023-04-24T02:33:16;3.65;;;1.40;;
65583;SDS011;62116;43.582;1.470;2023-04-24T02:35:42;5.43;;;1.30;;
65583;SDS011;62116;43.582;1.470;2023-04-24T02:38:07;4.43;;;1.17;;
65583;SDS011;62116;43.582;1.470;2023-04-24T02:40:32;4.43;;;1.35;;
65583;SDS011;62116;43.582;1.470;2023-04-24T02:42:58;7.22;;;1.48;;
65583;SDS011;62116;43.582;1.470;2023-04-24T02:45:23;6.90;;;2.00;;
65583;SDS011;62116;43.582;1.470;2023-04-24T02:47:49;4.05;;;1.40;;
65583;SDS011;62116;43.582;1.470;2023-04-24T02:50:14;6.03;;;1.58;;
65583;SDS011;62116;43.582;1.470;2023-04-24T02:52:40;4.68;;;1.40;;
65583;SDS011;62116;43.582;1.470;2023-04-24T02:55:05;7.18;;;1.65;;
65583;SDS011;62116;43.582;1.470;2023-04-24T02:57:32;6.15;;;1.50;;
65583;SDS011;62116;43.582;1.470;2023-04-24T02:59:58;6.32;;;1.70;;
65583;SDS011;62116;43.582;1.470;2023-04-24T03:02:23;6.82;;;1.75;;
65583;SDS011;62116;43.582;1.470;2023-04-24T03:04:49;5.10;;;1.80;;
65583;SDS011;62116;43.582;1.470;2023-04-24T03:07:14;8.20;;;1.60;;
65583;SDS011;62116;43.582;1.470;2023-04-24T03:09:40;7.13;;;1.70;;
65583;SDS011;62116;43.582;1.470;2023-04-24T03:12:05;7.68;;;1.70;;
65583;SDS011;62116;43.582;1.470;2023-04-24T03:14:31;6.68;;;1.90;;
65583;SDS011;62116;43.582;1.470;2023-04-24T03:16:57;6.25;;;1.70;;
65583;SDS011;62116;43.582;1.470;2023-04-24T03:19:22;6.95;;;1.50;;
65583;SDS011;62116;43.582;1.470;2023-04-24T03:21:47;3.97;;;1.38;;
65583;SDS011;62116;43.582;1.470;2023-04-24T03:24:13;5.47;;;1.50;;
65583;SDS011;62116;43.582;1.470;2023-04-24T03:26:39;7.35;;;1.52;;
65583;SDS011;62116;43.582;1.470;2023-04-24T03:29:04;2.78;;;1.20;;
65583;SDS011;62116;43.582;1.470;2023-04-24T03:31:30;3.22;;;1.27;;
65583;SDS011;62116;43.582;1.470;2023-04-24T03:33:55;5.45;;;1.30;;
65583;SDS011;62116;43.582;1.470;2023-04-24T03:36:20;8.18;;;1.40;;
65583;SDS011;62116;43.582;1.470;2023-04-24T03:38:46;10.57;;;1.52;;
65583;SDS011;62116;43.582;1.470;2023-04-24T03:41:11;6.72;;;1.45;;
65583;SDS011;62116;43.582;1.470;2023-04-24T03:43:37;6.57;;;1.25;;
65583;SDS011;62116;43.582;1.470;2023-04-24T03:46:03;6.68;;;1.45;;
65583;SDS011;62116;43.582;1.470;2023-04-24T03:48:28;12.23;;;1.92;;
65583;SDS011;62116;43.582;1.470;2023-04-24T03:50:54;5.68;;;1.40;;
65583;SDS011;62116;43.582;1.470;2023-04-24T03:53:19;4.43;;;1.30;;
65583;SDS011;62116;43.582;1.470;2023-04-24T03:55:45;5.30;;;1.50;;
65583;SDS011;62116;43.582;1.470;2023-04-24T03:58:11;4.75;;;1.80;;
65583;SDS011;62116;43.582;1.470;2023-04-24T04:00:36;9.30;;;1.52;;
65583;SDS011;62116;43.582;1.470;2023-04-24T04:03:02;5.32;;;1.10;;
65583;SDS011;62116;43.582;1.470;2023-04-24T04:05:28;3.83;;;1.20;;
65583;SDS011;62116;43.582;1.470;2023-04-24T04:07:54;5.28;;;1.42;;
65583;SDS011;62116;43.582;1.470;2023-04-24T04:10:20;4.85;;;1.20;;
65583;SDS011;62116;43.582;1.470;2023-04-24T04:12:45;6.18;;;1.58;;
65583;SDS011;62116;43.582;1.470;2023-04-24T04:15:11;4.85;;;1.58;;
65583;SDS011;62116;43.582;1.470;2023-04-24T04:17:36;5.63;;;1.30;;
65583;SDS011;62116;43.582;1.470;2023-04-24T04:20:03;6.35;;;1.63;;
65583;SDS011;62116;43.582;1.470;2023-04-24T04:24:59;8.07;;;1.67;;
65583;SDS011;62116;43.582;1.470;2023-04-24T04:27:24;6.68;;;1.60;;
65583;SDS011;62116;43.582;1.470;2023-04-24T04:29:49;6.47;;;1.58;;
65583;SDS011;62116;43.582;1.470;2023-04-24T04:32:15;11.18;;;1.52;;
65583;SDS011;62116;43.582;1.470;2023-04-24T04:34:41;6.05;;;1.38;;
65583;SDS011;62116;43.582;1.470;2023-04-24T04:37:07;6.32;;;1.60;;
65583;SDS011;62116;43.582;1.470;2023-04-24T04:39:35;3.85;;;1.25;;
65583;SDS011;62116;43.582;1.470;2023-04-24T04:42:00;5.55;;;1.58;;
65583;SDS011;62116;43.582;1.470;2023-04-24T04:44:26;6.07;;;1.40;;
65583;SDS011;62116;43.582;1.470;2023-04-24T04:46:52;8.73;;;1.50;;
65583;SDS011;62116;43.582;1.470;2023-04-24T04:49:18;5.15;;;1.20;;
65583;SDS011;62116;43.582;1.470;2023-04-24T04:51:46;6.43;;;1.65;;
65583;SDS011;62116;43.582;1.470;2023-04-24T04:54:12;5.20;;;1.65;;
65583;SDS011;62116;43.582;1.470;2023-04-24T04:56:37;5.82;;;1.40;;
65583;SDS011;62116;43.582;1.470;2023-04-24T04:59:02;8.48;;;1.52;;
65583;SDS011;62116;43.582;1.470;2023-04-24T05:01:28;8.32;;;1.60;;
65583;SDS011;62116;43.582;1.470;2023-04-24T05:03:53;6.35;;;1.30;;
65583;SDS011;62116;43.582;1.470;2023-04-24T05:06:19;6.03;;;1.50;;
65583;SDS011;62116;43.582;1.470;2023-04-24T05:08:44;7.97;;;1.60;;
65583;SDS011;62116;43.582;1.470;2023-04-24T05:11:10;6.55;;;1.40;;
65583;SDS011;62116;43.582;1.470;2023-04-24T05:13:35;5.50;;;1.70;;
65583;SDS011;62116;43.582;1.470;2023-04-24T05:16:00;8.05;;;1.65;;
65583;SDS011;62116;43.582;1.470;2023-04-24T05:18:26;7.70;;;1.80;;
65583;SDS011;62116;43.582;1.470;2023-04-24T05:20:51;9.68;;;1.83;;
65583;SDS011;62116;43.582;1.470;2023-04-24T05:23:16;8.65;;;1.45;;
65583;SDS011;62116;43.582;1.470;2023-04-24T05:25:42;4.90;;;1.17;;
65583;SDS011;62116;43.582;1.470;2023-04-24T05:28:07;9.82;;;1.85;;
65583;SDS011;62116;43.582;1.470;2023-04-24T05:30:33;6.88;;;1.40;;
65583;SDS011;62116;43.582;1.470;2023-04-24T05:32:58;5.28;;;1.30;;
65583;SDS011;62116;43.582;1.470;2023-04-24T05:35:24;6.80;;;1.60;;
65583;SDS011;62116;43.582;1.470;2023-04-24T05:37:49;7.40;;;1.50;;
65583;SDS011;62116;43.582;1.470;2023-04-24T05:40:15;8.70;;;1.65;;
65583;SDS011;62116;43.582;1.470;2023-04-24T05:42:40;6.80;;;1.48;;
65583;SDS011;62116;43.582;1.470;2023-04-24T05:45:08;8.13;;;1.50;;
65583;SDS011;62116;43.582;1.470;2023-04-24T05:47:39;9.45;;;1.70;;
65583;SDS011;62116;43.582;1.470;2023-04-24T05:50:05;7.10;;;1.60;;
65583;SDS011;62116;43.582;1.470;2023-04-24T05:52:31;7.70;;;1.50;;
65583;SDS011;62116;43.582;1.470;2023-04-24T05:54:56;7.30;;;1.52;;
65583;SDS011;62116;43.582;1.470;2023-04-24T05:57:21;9.07;;;1.75;;
65583;SDS011;62116;43.582;1.470;2023-04-24T05:59:47;9.00;;;1.88;;
65583;SDS011;62116;43.582;1.470;2023-04-24T06:02:12;11.40;;;1.90;;
65583;SDS011;62116;43.582;1.470;2023-04-24T06:04:38;10.05;;;1.90;;
65583;SDS011;62116;43.582;1.470;2023-04-24T06:07:03;8.68;;;2.88;;
65583;SDS011;62116;43.582;1.470;2023-04-24T06:09:29;10.25;;;2.08;;
65583;SDS011;62116;43.582;1.470;2023-04-24T06:11:54;8.80;;;1.70;;
65583;SDS011;62116;43.582;1.470;2023-04-24T06:14:21;7.93;;;1.80;;
65583;SDS011;62116;43.582;1.470;2023-04-24T06:16:47;10.77;;;1.95;;
65583;SDS011;62116;43.582;1.470;2023-04-24T06:19:12;13.32;;;2.45;;
65583;SDS011;62116;43.582;1.470;2023-04-24T06:21:37;5.60;;;1.70;;
65583;SDS011;62116;43.582;1.470;2023-04-24T06:24:03;9.85;;;1.95;;
65583;SDS011;62116;43.582;1.470;2023-04-24T06:26:29;7.55;;;2.05;;
65583;SDS011;62116;43.582;1.470;2023-04-24T06:28:54;8.60;;;1.95;;
65583;SDS011;62116;43.582;1.470;2023-04-24T06:31:20;8.68;;;1.92;;
65583;SDS011;62116;43.582;1.470;2023-04-24T06:33:46;8.85;;;1.80;;
65583;SDS011;62116;43.582;1.470;2023-04-24T06:36:13;9.75;;;2.00;;
65583;SDS011;62116;43.582;1.470;2023-04-24T06:38:41;8.50;;;1.63;;
65583;SDS011;62116;43.582;1.470;2023-04-24T06:41:07;12.18;;;1.80;;
65583;SDS011;62116;43.582;1.470;2023-04-24T06:43:32;8.45;;;1.60;;
65583;SDS011;62116;43.582;1.470;2023-04-24T06:45:58;11.90;;;2.00;;
65583;SDS011;62116;43.582;1.470;2023-04-24T06:48:24;8.02;;;2.13;;
65583;SDS011;62116;43.582;1.470;2023-04-24T06:50:50;7.70;;;1.95;;
65583;SDS011;62116;43.582;1.470;2023-04-24T06:53:16;8.63;;;1.83;;
65583;SDS011;62116;43.582;1.470;2023-04-24T06:55:42;10.77;;;2.03;;
65583;SDS011;62116;43.582;1.470;2023-04-24T06:58:08;6.55;;;1.80;;
65583;SDS011;62116;43.582;1.470;2023-04-24T07:00:34;8.27;;;1.90;;
65583;SDS011;62116;43.582;1.470;2023-04-24T07:02:59;11.10;;;1.90;;
65583;SDS011;62116;43.582;1.470;2023-04-24T07:05:25;13.63;;;2.10;;
65583;SDS011;62116;43.582;1.470;2023-04-24T07:07:50;9.27;;;2.00;;
65583;SDS011;62116;43.582;1.470;2023-04-24T07:10:16;5.15;;;1.58;;
65583;SDS011;62116;43.582;1.470;2023-04-24T07:12:42;11.32;;;1.98;;
65583;SDS011;62116;43.582;1.470;2023-04-24T07:15:07;4.55;;;1.70;;
65583;SDS011;62116;43.582;1.470;2023-04-24T07:17:33;5.38;;;1.60;;
65583;SDS011;62116;43.582;1.470;2023-04-24T07:19:59;7.35;;;1.67;;
65583;SDS011;62116;43.582;1.470;2023-04-24T07:22:25;8.85;;;2.35;;
65583;SDS011;62116;43.582;1.470;2023-04-24T07:24:50;6.13;;;1.52;;
65583;SDS011;62116;43.582;1.470;2023-04-24T07:27:16;9.77;;;2.03;;
65583;SDS011;62116;43.582;1.470;2023-04-24T07:29:41;6.28;;;1.58;;
65583;SDS011;62116;43.582;1.470;2023-04-24T07:32:07;10.10;;;1.95;;
65583;SDS011;62116;43.582;1.470;2023-04-24T07:34:34;5.25;;;1.50;;
65583;SDS011;62116;43.582;1.470;2023-04-24T07:36:59;8.65;;;1.77;;
65583;SDS011;62116;43.582;1.470;2023-04-24T07:39:25;4.38;;;1.20;;
65583;SDS011;62116;43.582;1.470;2023-04-24T07:41:51;6.78;;;1.40;;
65583;SDS011;62116;43.582;1.470;2023-04-24T07:44:16;6.47;;;1.40;;
65583;SDS011;62116;43.582;1.470;2023-04-24T07:46:42;3.47;;;1.13;;
65583;SDS011;62116;43.582;1.470;2023-04-24T07:49:07;6.72;;;1.65;;
65583;SDS011;62116;43.582;1.470;2023-04-24T07:51:33;5.05;;;1.30;;
65583;SDS011;62116;43.582;1.470;2023-04-24T07:54:03;5.35;;;1.20;;
65583;SDS011;62116;43.582;1.470;2023-04-24T07:56:28;5.93;;;1.05;;
65583;SDS011;62116;43.582;1.470;2023-04-24T07:58:56;6.32;;;1.10;;
65583;SDS011;62116;43.582;1.470;2023-04-24T08:01:21;4.95;;;0.95;;
65583;SDS011;62116;43.582;1.470;2023-04-24T08:03:46;3.55;;;0.98;;
65583;SDS011;62116;43.582;1.470;2023-04-24T08:06:12;6.97;;;1.20;;
65583;SDS011;62116;43.582;1.470;2023-04-24T08:08:37;4.32;;;0.98;;
65583;SDS011;62116;43.582;1.470;2023-04-24T08:11:03;5.05;;;1.17;;
65583;SDS011;62116;43.582;1.470;2023-04-24T08:13:28;4.70;;;1.10;;
65583;SDS011;62116;43.582;1.470;2023-04-24T08:15:53;5.43;;;1.10;;
65583;SDS011;62116;43.582;1.470;2023-04-24T08:18:19;5.00;;;1.00;;
65583;SDS011;62116;43.582;1.470;2023-04-24T08:20:44;6.15;;;1.42;;
65583;SDS011;62116;43.582;1.470;2023-04-24T08:23:10;4.50;;;1.08;;
65583;SDS011;62116;43.582;1.470;2023-04-24T08:25:35;3.97;;;0.77;;
65583;SDS011;62116;43.582;1.470;2023-04-24T08:28:05;5.55;;;0.98;;
65583;SDS011;62116;43.582;1.470;2023-04-24T08:30:31;7.30;;;1.25;;
65583;SDS011;62116;43.582;1.470;2023-04-24T08:32:56;5.50;;;1.02;;
65583;SDS011;62116;43.582;1.470;2023-04-24T08:35:22;5.95;;;1.00;;
65583;SDS011;62116;43.582;1.470;2023-04-24T08:37:48;6.47;;;0.98;;
65583;SDS011;62116;43.582;1.470;2023-04-24T08:40:14;3.72;;;1.10;;
65583;SDS011;62116;43.582;1.470;2023-04-24T08:42:43;7.57;;;1.00;;
65583;SDS011;62116;43.582;1.470;2023-04-24T08:45:12;3.10;;;1.00;;
65583;SDS011;62116;43.582;1.470;2023-04-24T08:47:38;7.72;;;1.10;;
65583;SDS011;62116;43.582;1.470;2023-04-24T08:50:05;4.95;;;0.90;;
65583;SDS011;62116;43.582;1.470;2023-04-24T08:52:32;3.58;;;0.98;;
65583;SDS011;62116;43.582;1.470;2023-04-24T08:54:58;4.25;;;0.98;;
65583;SDS011;62116;43.582;1.470;2023-04-24T08:57:25;4.45;;;1.05;;
65583;SDS011;62116;43.582;1.470;2023-04-24T08:59:51;3.53;;;0.95;;
65583;SDS011;62116;43.582;1.470;2023-04-24T09:02:18;5.63;;;1.13;;
65583;SDS011;62116;43.582;1.470;2023-04-24T09:04:43;4.28;;;0.80;;
65583;SDS011;62116;43.582;1.470;2023-04-24T09:07:11;7.32;;;0.98;;
65583;SDS011;62116;43.582;1.470;2023-04-24T09:09:39;4.47;;;0.88;;
65583;SDS011;62116;43.582;1.470;2023-04-24T09:12:06;3.15;;;0.90;;
65583;SDS011;62116;43.582;1.470;2023-04-24T09:14:34;4.90;;;1.08;;
65583;SDS011;62116;43.582;1.470;2023-04-24T09:17:01;4.60;;;1.02;;
65583;SDS011;62116;43.582;1.470;2023-04-24T09:19:27;6.25;;;1.40;;
65583;SDS011;62116;43.582;1.470;2023-04-24T09:21:52;5.30;;;0.90;;
65583;SDS011;62116;43.582;1.470;2023-04-24T09:24:19;3.78;;;0.90;;
65583;SDS011;62116;43.582;1.470;2023-04-24T09:26:47;5.43;;;1.20;;
65583;SDS011;62116;43.582;1.470;2023-04-24T09:29:15;5.28;;;1.00;;
65583;SDS011;62116;43.582;1.470;2023-04-24T09:31:41;2.17;;;0.82;;
65583;SDS011;62116;43.582;1.470;2023-04-24T09:34:07;3.00;;;0.95;;
65583;SDS011;62116;43.582;1.470;2023-04-24T09:36:36;4.75;;;1.20;;
65583;SDS011;62116;43.582;1.470;2023-04-24T09:39:07;4.00;;;0.93;;
65583;SDS011;62116;43.582;1.470;2023-04-24T09:41:38;4.68;;;1.30;;
65583;SDS011;62116;43.582;1.470;2023-04-24T09:44:19;3.92;;;0.80;;
65583;SDS011;62116;43.582;1.470;2023-04-24T09:46:49;1.95;;;0.70;;
65583;SDS011;62116;43.582;1.470;2023-04-24T09:49:19;2.33;;;1.00;;
65583;SDS011;62116;43.582;1.470;2023-04-24T09:51:47;2.53;;;0.80;;
65583;SDS011;62116;43.582;1.470;2023-04-24T09:54:14;3.08;;;1.05;;
65583;SDS011;62116;43.582;1.470;2023-04-24T09:56:44;3.30;;;1.13;;
65583;SDS011;62116;43.582;1.470;2023-04-24T09:59:12;2.60;;;0.73;;
65583;SDS011;62116;43.582;1.470;2023-04-24T10:01:38;4.43;;;1.00;;
65583;SDS011;62116;43.582;1.470;2023-04-24T10:04:06;3.40;;;0.88;;
65583;SDS011;62116;43.582;1.470;2023-04-24T10:06:50;2.90;;;0.80;;
65583;SDS011;62116;43.582;1.470;2023-04-24T10:09:18;2.90;;;0.93;;
65583;SDS011;62116;43.582;1.470;2023-04-24T10:11:45;4.20;;;1.10;;
65583;SDS011;62116;43.582;1.470;2023-04-24T10:14:12;5.22;;;1.00;;
65583;SDS011;62116;43.582;1.470;2023-04-24T10:16:39;5.22;;;0.90;;
65583;SDS011;62116;43.582;1.470;2023-04-24T10:19:05;4.07;;;0.93;;
65583;SDS011;62116;43.582;1.470;2023-04-24T10:21:32;3.28;;;1.13;;
65583;SDS011;62116;43.582;1.470;2023-04-24T10:23:59;5.45;;;0.98;;
65583;SDS011;62116;43.582;1.470;2023-04-24T10:26:28;4.30;;;0.98;;
65583;SDS011;62116;43.582;1.470;2023-04-24T10:28:54;4.55;;;1.08;;
65583;SDS011;62116;43.582;1.470;2023-04-24T10:31:22;2.60;;;0.90;;
65583;SDS011;62116;43.582;1.470;2023-04-24T10:33:47;4.40;;;0.90;;
65583;SDS011;62116;43.582;1.470;2023-04-24T10:36:16;0.95;;;0.60;;
65583;SDS011;62116;43.582;1.470;2023-04-24T10:38:42;4.38;;;0.90;;
65583;SDS011;62116;43.582;1.470;2023-04-24T10:41:11;3.83;;;0.88;;
65583;SDS011;62116;43.582;1.470;2023-04-24T10:43:45;5.13;;;1.10;;
65583;SDS011;62116;43.582;1.470;2023-04-24T10:46:16;2.58;;;0.75;;
65583;SDS011;62116;43.582;1.470;2023-04-24T10:48:53;3.47;;;0.90;;
65583;SDS011;62116;43.582;1.470;2023-04-24T10:51:23;3.33;;;0.88;;
65583;SDS011;62116;43.582;1.470;2023-04-24T10:53:52;2.30;;;0.70;;
65583;SDS011;62116;43.582;1.470;2023-04-24T10:56:18;4.30;;;1.10;;
65583;SDS011;62116;43.582;1.470;2023-04-24T11:01:32;5.88;;;1.30;;
65583;SDS011;62116;43.582;1.470;2023-04-24T11:03:58;5.15;;;0.98;;
65583;SDS011;62116;43.582;1.470;2023-04-24T11:06:33;3.13;;;0.88;;
65583;SDS011;62116;43.582;1.470;2023-04-24T11:11:32;4.15;;;1.20;;
65583;SDS011;62116;43.582;1.470;2023-04-24T11:32:26;5.00;;;1.10;;
65583;SDS011;62116;43.582;1.470;2023-04-24T11:34:55;5.97;;;1.30;;
65583;SDS011;62116;43.582;1.470;2023-04-24T11:37:23;6.28;;;1.20;;
65583;SDS011;62116;43.582;1.470;2023-04-24T11:39:52;4.28;;;1.08;;
65583;SDS011;62116;43.582;1.470;2023-04-24T11:42:18;5.97;;;1.58;;
65583;SDS011;62116;43.582;1.470;2023-04-24T11:44:44;4.60;;;1.20;;
65583;SDS011;62116;43.582;1.470;2023-04-24T11:47:12;2.90;;;1.05;;
65583;SDS011;62116;43.582;1.470;2023-04-24T11:49:37;4.80;;;0.90;;
65583;SDS011;62116;43.582;1.470;2023-04-24T11:52:03;2.92;;;1.00;;
65583;SDS011;62116;43.582;1.470;2023-04-24T11:54:29;5.20;;;1.20;;
65583;SDS011;62116;43.582;1.470;2023-04-24T11:56:55;5.32;;;1.02;;
65583;SDS011;62116;43.582;1.470;2023-04-24T11:59:21;3.22;;;0.80;;
65583;SDS011;62116;43.582;1.470;2023-04-24T12:01:47;3.13;;;0.77;;
65583;SDS011;62116;43.582;1.470;2023-04-24T12:04:14;5.05;;;0.90;;
65583;SDS011;62116;43.582;1.470;2023-04-24T12:07:02;4.28;;;0.80;;
65583;SDS011;62116;43.582;1.470;2023-04-24T12:09:46;3.30;;;1.08;;
65583;SDS011;62116;43.582;1.470;2023-04-24T12:12:13;3.20;;;1.00;;
65583;SDS011;62116;43.582;1.470;2023-04-24T12:14:47;2.78;;;0.90;;
65583;SDS011;62116;43.582;1.470;2023-04-24T12:17:14;4.95;;;1.20;;
65583;SDS011;62116;43.582;1.470;2023-04-24T12:19:47;5.10;;;0.90;;
65583;SDS011;62116;43.582;1.470;2023-04-24T12:22:13;3.95;;;0.80;;
65583;SDS011;62116;43.582;1.470;2023-04-24T12:27:44;5.05;;;1.00;;
65583;SDS011;62116;43.582;1.470;2023-04-24T12:30:12;3.58;;;1.00;;
65583;SDS011;62116;43.582;1.470;2023-04-24T12:32:42;4.32;;;1.00;;
65583;SDS011;62116;43.582;1.470;2023-04-24T12:35:10;4.90;;;1.10;;
65583;SDS011;62116;43.582;1.470;2023-04-24T12:37:36;6.43;;;1.00;;
65583;SDS011;62116;43.582;1.470;2023-04-24T12:42:32;2.63;;;0.90;;
65583;SDS011;62116;43.582;1.470;2023-04-24T12:44:58;4.45;;;1.20;;
65583;SDS011;62116;43.582;1.470;2023-04-24T12:47:25;3.88;;;1.17;;
65583;SDS011;62116;43.582;1.470;2023-04-24T12:49:52;3.88;;;1.10;;
65583;SDS011;62116;43.582;1.470;2023-04-24T12:52:18;4.35;;;0.90;;
65583;SDS011;62116;43.582;1.470;2023-04-24T12:54:45;4.38;;;1.10;;
65583;SDS011;62116;43.582;1.470;2023-04-24T12:57:11;7.60;;;1.27;;
65583;SDS011;62116;43.582;1.470;2023-04-24T12:59:36;3.80;;;0.90;;
65583;SDS011;62116;43.582;1.470;2023-04-24T13:02:01;5.95;;;1.00;;
65583;SDS011;62116;43.582;1.470;2023-04-24T13:04:27;5.30;;;1.10;;
65583;SDS011;62116;43.582;1.470;2023-04-24T13:06:53;2.63;;;0.90;;
65583;SDS011;62116;43.582;1.470;2023-04-24T13:09:18;2.72;;;0.98;;
65583;SDS011;62116;43.582;1.470;2023-04-24T13:11:43;4.28;;;0.88;;
65583;SDS011;62116;43.582;1.470;2023-04-24T13:14:09;3.30;;;0.90;;
65583;SDS011;62116;43.582;1.470;2023-04-24T13:16:34;3.22;;;0.88;;
65583;SDS011;62116;43.582;1.470;2023-04-24T13:19:00;6.07;;;1.05;;
65583;SDS011;62116;43.582;1.470;2023-04-24T13:21:25;8.00;;;1.27;;
65583;SDS011;62116;43.582;1.470;2023-04-24T13:23:51;3.15;;;1.00;;
65583;SDS011;62116;43.582;1.470;2023-04-24T13:26:16;3.22;;;0.70;;
65583;SDS011;62116;43.582;1.470;2023-04-24T13:28:42;5.82;;;0.90;;
65583;SDS011;62116;43.582;1.470;2023-04-24T13:31:07;5.25;;;0.90;;
65583;SDS011;62116;43.582;1.470;2023-04-24T13:33:33;4.10;;;0.82;;
65583;SDS011;62116;43.582;1.470;2023-04-24T13:35:58;4.35;;;0.90;;
65583;SDS011;62116;43.582;1.470;2023-04-24T13:38:23;4.15;;;0.90;;
65583;SDS011;62116;43.582;1.470;2023-04-24T13:40:49;4.68;;;0.90;;
65583;SDS011;62116;43.582;1.470;2023-04-24T13:43:14;4.18;;;0.90;;
65583;SDS011;62116;43.582;1.470;2023-04-24T13:45:40;3.42;;;0.90;;
65583;SDS011;62116;43.582;1.470;2023-04-24T13:48:06;3.63;;;0.90;;
65583;SDS011;62116;43.582;1.470;2023-04-24T13:50:31;3.70;;;0.95;;
65583;SDS011;62116;43.582;1.470;2023-04-24T13:52:57;3.78;;;1.00;;
65583;SDS011;62116;43.582;1.470;2023-04-24T13:55:22;5.32;;;1.35;;
65583;SDS011;62116;43.582;1.470;2023-04-24T13:57:47;4.50;;;1.38;;
65583;SDS011;62116;43.582;1.470;2023-04-24T14:00:14;7.13;;;1.23;;
65583;SDS011;62116;43.582;1.470;2023-04-24T14:02:40;7.70;;;1.55;;
65583;SDS011;62116;43.582;1.470;2023-04-24T14:05:05;5.18;;;0.98;;
65583;SDS011;62116;43.582;1.470;2023-04-24T14:07:31;4.53;;;0.85;;
65583;SDS011;62116;43.582;1.470;2023-04-24T14:09:57;3.25;;;1.08;;
65583;SDS011;62116;43.582;1.470;2023-04-24T14:12:22;5.85;;;1.10;;
65583;SDS011;62116;43.582;1.470;2023-04-24T14:14:48;4.45;;;0.95;;
65583;SDS011;62116;43.582;1.470;2023-04-24T14:17:13;3.05;;;0.90;;
65583;SDS011;62116;43.582;1.470;2023-04-24T14:19:39;4.97;;;1.00;;
65583;SDS011;62116;43.582;1.470;2023-04-24T14:22:04;5.32;;;1.00;;
65583;SDS011;62116;43.582;1.470;2023-04-24T14:24:30;4.13;;;1.00;;
65583;SDS011;62116;43.582;1.470;2023-04-24T14:26:55;5.03;;;1.45;;
65583;SDS011;62116;43.582;1.470;2023-04-24T14:29:21;4.35;;;0.90;;
65583;SDS011;62116;43.582;1.470;2023-04-24T14:31:47;5.30;;;1.10;;
65583;SDS011;62116;43.582;1.470;2023-04-24T14:34:13;3.58;;;1.10;;
65583;SDS011;62116;43.582;1.470;2023-04-24T14:36:39;4.10;;;0.95;;
65583;SDS011;62116;43.582;1.470;2023-04-24T14:39:05;3.92;;;0.90;;
65583;SDS011;62116;43.582;1.470;2023-04-24T14:41:31;4.38;;;1.00;;
65583;SDS011;62116;43.582;1.470;2023-04-24T14:44:00;5.88;;;1.40;;
65583;SDS011;62116;43.582;1.470;2023-04-24T14:46:27;3.80;;;1.00;;
65583;SDS011;62116;43.582;1.470;2023-04-24T14:48:54;4.93;;;0.80;;
65583;SDS011;62116;43.582;1.470;2023-04-24T14:51:19;3.28;;;0.80;;
65583;SDS011;62116;43.582;1.470;2023-04-24T14:53:44;2.00;;;1.00;;
65583;SDS011;62116;43.582;1.470;2023-04-24T14:56:12;4.53;;;1.00;;
65583;SDS011;62116;43.582;1.470;2023-04-24T14:58:38;6.10;;;1.17;;
65583;SDS011;62116;43.582;1.470;2023-04-24T15:01:03;2.90;;;0.90;;
65583;SDS011;62116;43.582;1.470;2023-04-24T15:03:29;3.08;;;1.10;;
65583;SDS011;62116;43.582;1.470;2023-04-24T15:05:54;2.78;;;1.05;;
65583;SDS011;62116;43.582;1.470;2023-04-24T15:08:20;2.80;;;1.10;;
65583;SDS011;62116;43.582;1.470;2023-04-24T15:10:46;3.63;;;1.10;;
65583;SDS011;62116;43.582;1.470;2023-04-24T15:13:12;4.78;;;1.10;;
65583;SDS011;62116;43.582;1.470;2023-04-24T15:15:37;2.40;;;0.85;;